createdAt,value
2019-02-28T00:07:38.047Z,3.25
2019-02-28T00:17:42.868Z,3.30
2019-02-28T00:27:43.119Z,3.78
2019-02-28T00:37:46.741Z,3.15
2019-02-28T00:47:48.359Z,3.34
2019-02-28T00:57:49.139Z,3.24
2019-02-28T01:07:50.078Z,2.91
2019-02-28T01:17:50.920Z,2.98
2019-02-28T01:27:52.423Z,2.79
2019-02-28T01:37:55.579Z,3.00
2019-02-28T01:47:59.400Z,2.70
2019-02-28T01:58:02.429Z,2.85
2019-02-28T02:08:06.518Z,2.77
2019-02-28T02:18:09.447Z,2.71
2019-02-28T02:28:09.029Z,2.61
2019-02-28T02:38:10.562Z,2.46
2019-02-28T02:48:11.386Z,2.59
2019-02-28T02:58:12.124Z,2.66
2019-02-28T03:08:12.841Z,2.15
2019-02-28T03:18:20.434Z,1.82
2019-02-28T03:28:21.353Z,2.35
2019-02-28T03:38:22.091Z,2.11
2019-02-28T03:48:23.003Z,2.35
2019-02-28T03:58:23.842Z,2.13
2019-02-28T04:08:29.329Z,1.85
2019-02-28T04:18:27.549Z,1.43
2019-02-28T04:28:28.422Z,1.59
2019-02-28T04:38:29.676Z,1.70
2019-02-28T04:48:30.387Z,2.77
2019-02-28T04:58:31.423Z,4.04
2019-02-28T05:08:32.751Z,4.02
2019-02-28T05:18:33.674Z,4.78
2019-02-28T05:28:40.273Z,4.20
2019-02-28T05:38:37.376Z,4.40
2019-02-28T05:48:38.691Z,4.25
2019-02-28T05:58:40.180Z,4.33
2019-02-28T06:08:41.081Z,4.31
2019-02-28T06:18:41.729Z,4.95
2019-02-28T06:28:42.423Z,4.62
2019-02-28T06:38:43.121Z,5.21
2019-02-28T06:48:47.497Z,5.08
2019-02-28T06:58:48.200Z,6.00
2019-02-28T07:08:49.025Z,6.29
2019-02-28T07:18:53.808Z,6.83
2019-02-28T07:28:53.706Z,7.22
2019-02-28T07:38:54.674Z,7.47
2019-02-28T07:48:55.388Z,7.94
2019-02-28T07:58:56.365Z,8.77
2019-02-28T08:08:57.244Z,9.06
2019-02-28T08:18:57.923Z,9.42
2019-02-28T08:28:58.974Z,10.01
2019-02-28T08:38:59.667Z,10.26
2019-02-28T08:49:06.304Z,10.69
2019-02-28T08:59:11.518Z,11.16
2019-02-28T09:09:08.934Z,11.66
2019-02-28T09:19:09.621Z,11.75
2019-02-28T09:29:10.366Z,12.33
2019-02-28T09:39:11.107Z,12.35
2019-02-28T09:49:12.964Z,12.20
2019-02-28T09:59:16.711Z,12.41
2019-02-28T10:09:17.762Z,12.66
2019-02-28T10:19:18.448Z,13.21
2019-02-28T10:29:19.177Z,13.57
2019-02-28T10:39:19.952Z,13.71
2019-02-28T10:49:21.092Z,13.41
2019-02-28T10:59:24.427Z,13.38
2019-02-28T11:09:25.997Z,13.53
2019-02-28T11:19:26.863Z,13.56
2019-02-28T11:29:27.510Z,13.72
2019-02-28T11:39:33.798Z,13.85
2019-02-28T11:49:34.704Z,14.46
2019-02-28T11:59:35.692Z,14.63
2019-02-28T12:09:36.771Z,15.50
2019-02-28T12:19:37.433Z,15.13
2019-02-28T12:29:40.893Z,16.04
2019-02-28T12:39:41.594Z,16.01
2019-02-28T12:49:42.376Z,16.49
2019-02-28T12:59:46.051Z,16.27
2019-02-28T13:09:48.224Z,16.70
2019-02-28T13:19:53.229Z,16.21
2019-02-28T13:29:53.709Z,16.59
2019-02-28T13:39:54.389Z,16.55
2019-02-28T13:49:55.187Z,16.80
2019-02-28T13:59:55.822Z,16.67
2019-02-28T14:09:58.171Z,16.70
2019-02-28T14:20:03.696Z,16.95
2019-02-28T14:30:16.157Z,17.09
2019-02-28T14:40:17.791Z,17.00
2019-02-28T14:50:19.997Z,16.59
2019-02-28T15:00:22.851Z,16.51
2019-02-28T15:10:25.575Z,16.38
2019-02-28T15:20:31.524Z,16.02
2019-02-28T15:30:39.670Z,15.98
2019-02-28T15:40:42.312Z,15.82
2019-02-28T15:50:42.986Z,15.86
2019-02-28T16:00:43.712Z,13.88
2019-02-28T16:10:52.867Z,13.05
2019-02-28T16:20:47.511Z,12.65
2019-02-28T16:30:48.212Z,12.33
2019-02-28T16:40:49.232Z,12.24
2019-02-28T16:50:50.715Z,12.36
2019-02-28T17:00:52.852Z,12.13
2019-02-28T17:10:54.773Z,11.70
2019-02-28T17:20:55.525Z,11.63
2019-02-28T17:30:56.253Z,11.76
2019-02-28T17:40:58.791Z,11.55
2019-02-28T17:51:06.207Z,11.58
2019-02-28T18:01:25.385Z,11.42
2019-02-28T18:11:35.951Z,11.33
2019-02-28T18:21:41.013Z,11.21
2019-02-28T18:31:42.565Z,10.97
2019-02-28T18:41:43.342Z,11.11
2019-02-28T18:52:10.576Z,10.95
2019-02-28T19:02:11.245Z,10.93
2019-02-28T19:12:13.856Z,10.86
2019-02-28T19:22:14.566Z,10.75
2019-02-28T19:32:15.328Z,10.51
2019-02-28T19:42:16.652Z,10.58
2019-02-28T19:52:17.666Z,10.42
2019-02-28T20:02:21.213Z,10.35
2019-02-28T20:12:22.077Z,10.21
2019-02-28T20:22:23.014Z,10.19
2019-02-28T20:32:23.787Z,10.14
2019-02-28T20:42:25.839Z,10.24
2019-02-28T20:52:26.594Z,10.26
2019-02-28T21:02:27.358Z,10.19
2019-02-28T21:12:29.302Z,9.31
2019-02-28T21:22:30.161Z,9.01
2019-02-28T21:32:30.814Z,9.09
2019-02-28T21:42:31.466Z,9.18
2019-02-28T21:52:32.211Z,9.27
2019-02-28T22:02:32.964Z,9.15
2019-02-28T22:12:33.975Z,9.53
2019-02-28T22:22:34.682Z,9.35
2019-02-28T22:32:35.630Z,9.42
2019-02-28T22:42:36.653Z,9.43
2019-02-28T22:52:37.741Z,9.37
2019-02-28T23:02:38.855Z,9.56
2019-02-28T23:12:39.521Z,9.50
2019-02-28T23:22:40.228Z,9.25
2019-02-28T23:32:44.927Z,9.10
2019-02-28T23:42:45.761Z,8.83
2019-02-28T23:52:46.521Z,8.59
